createdAt,value
2018-06-13T00:02:16.116Z,4.00
2018-06-13T00:04:43.893Z,5.30
2018-06-13T00:07:11.575Z,4.67
2018-06-13T00:09:40.236Z,4.10
2018-06-13T00:12:08.030Z,4.73
2018-06-13T00:14:35.815Z,4.80
2018-06-13T00:17:03.734Z,4.63
2018-06-13T00:19:31.505Z,4.87
2018-06-13T00:21:59.268Z,4.70
2018-06-13T00:24:26.995Z,5.80
2018-06-13T00:26:54.720Z,5.47
2018-06-13T00:29:22.451Z,4.70
2018-06-13T00:31:50.178Z,5.60
2018-06-13T00:34:18.292Z,6.23
2018-06-13T00:36:46.257Z,6.10
2018-06-13T00:39:13.975Z,6.83
2018-06-13T00:41:41.724Z,7.30
2018-06-13T00:44:09.547Z,7.10
2018-06-13T00:46:37.280Z,7.27
2018-06-13T00:49:05.337Z,6.50
2018-06-13T00:51:33.151Z,6.60
2018-06-13T00:54:01.292Z,7.40
2018-06-13T00:56:31.400Z,7.40
2018-06-13T00:58:59.134Z,7.30
2018-06-13T01:01:26.767Z,7.27
2018-06-13T01:03:54.562Z,6.30
2018-06-13T01:06:22.176Z,6.50
2018-06-13T01:08:49.939Z,7.27
2018-06-13T01:11:18.119Z,6.90
2018-06-13T01:13:45.832Z,7.40
2018-06-13T01:16:13.447Z,6.63
2018-06-13T01:18:41.403Z,7.03
2018-06-13T01:21:09.703Z,6.97
2018-06-13T01:23:37.419Z,7.60
2018-06-13T01:26:05.160Z,7.60
2018-06-13T01:28:32.964Z,7.37
2018-06-13T01:31:00.726Z,7.90
2018-06-13T01:33:28.469Z,6.87
2018-06-13T01:35:56.225Z,8.27
2018-06-13T01:38:24.384Z,7.47
2018-06-13T01:40:51.988Z,7.80
2018-06-13T01:43:20.371Z,6.40
2018-06-13T01:45:48.292Z,7.50
2018-06-13T01:48:16.028Z,7.00
2018-06-13T01:50:54.493Z,6.93
2018-06-13T01:53:22.475Z,7.30
2018-06-13T01:55:50.212Z,7.27
2018-06-13T01:58:18.123Z,7.07
2018-06-13T02:00:46.104Z,7.00
2018-06-13T02:03:13.828Z,5.60
2018-06-13T02:05:41.631Z,5.57
2018-06-13T02:08:09.356Z,6.37
2018-06-13T02:10:37.052Z,6.30
2018-06-13T02:13:04.761Z,5.27
2018-06-13T02:15:32.616Z,5.40
2018-06-13T02:18:00.327Z,5.77
2018-06-13T02:20:28.135Z,5.93
2018-06-13T02:22:56.335Z,6.10
2018-06-13T02:25:24.056Z,7.20
2018-06-13T02:27:51.757Z,5.27
2018-06-13T02:30:19.976Z,5.47
2018-06-13T02:32:47.720Z,5.63
2018-06-13T02:35:15.448Z,4.90
2018-06-13T02:37:43.176Z,5.50
2018-06-13T02:40:11.044Z,4.83
2018-06-13T02:42:38.779Z,4.77
2018-06-13T02:45:07.264Z,5.40
2018-06-13T02:47:35.024Z,4.83
2018-06-13T02:50:02.787Z,4.67
2018-06-13T02:52:30.526Z,4.10
2018-06-13T02:54:58.363Z,4.57
2018-06-13T02:57:26.115Z,4.70
2018-06-13T02:59:53.876Z,4.20
2018-06-13T03:02:21.596Z,4.07
2018-06-13T03:04:49.318Z,4.50
2018-06-13T03:07:17.100Z,4.50
2018-06-13T03:09:44.719Z,4.43
2018-06-13T03:12:12.416Z,3.27
2018-06-13T03:14:40.125Z,3.43
2018-06-13T03:17:07.817Z,3.57
2018-06-13T03:19:35.516Z,3.37
2018-06-13T03:22:03.240Z,3.70
2018-06-13T03:24:30.940Z,4.37
2018-06-13T03:26:58.659Z,4.00
2018-06-13T03:29:26.383Z,4.03
2018-06-13T03:31:54.096Z,3.63
2018-06-13T03:34:21.799Z,3.50
2018-06-13T03:36:49.508Z,3.93
2018-06-13T03:39:17.200Z,4.80
2018-06-13T03:41:44.925Z,5.20
2018-06-13T03:44:12.657Z,4.73
2018-06-13T03:46:47.304Z,4.20
2018-06-13T03:49:14.885Z,4.50
2018-06-13T03:51:42.718Z,4.13
2018-06-13T03:54:10.327Z,4.20
2018-06-13T03:56:38.044Z,4.47
2018-06-13T03:59:05.751Z,3.70
2018-06-13T04:01:33.465Z,4.03
2018-06-13T04:04:01.195Z,4.10
2018-06-13T04:06:28.910Z,3.80
2018-06-13T04:08:56.632Z,5.33
2018-06-13T04:11:24.323Z,3.80
2018-06-13T04:13:52.023Z,3.80
2018-06-13T04:16:20.197Z,4.83
2018-06-13T04:18:47.935Z,4.60
2018-06-13T04:21:15.529Z,4.50
2018-06-13T04:23:43.228Z,3.80
2018-06-13T04:26:10.939Z,3.80
2018-06-13T04:28:38.627Z,3.53
2018-06-13T04:31:06.355Z,4.30
2018-06-13T04:33:34.088Z,4.43
2018-06-13T04:36:01.835Z,3.87
2018-06-13T04:38:29.620Z,5.23
2018-06-13T04:40:57.312Z,5.03
2018-06-13T04:43:25.028Z,4.60
2018-06-13T04:45:52.728Z,4.27
2018-06-13T04:48:20.344Z,4.40
2018-06-13T04:50:48.060Z,4.50
2018-06-13T04:53:15.648Z,5.00
2018-06-13T04:55:43.412Z,4.17
2018-06-13T04:58:11.151Z,3.97
2018-06-13T05:00:39.120Z,5.13
2018-06-13T05:03:06.828Z,5.10
2018-06-13T05:05:34.532Z,4.90
2018-06-13T05:08:02.258Z,3.90
2018-06-13T05:10:29.959Z,4.77
2018-06-13T05:12:57.687Z,4.20
2018-06-13T05:15:25.391Z,4.63
2018-06-13T05:17:52.998Z,3.80
2018-06-13T05:20:20.719Z,4.40
2018-06-13T05:22:48.443Z,5.00
2018-06-13T05:25:16.168Z,4.80
2018-06-13T05:27:43.895Z,4.40
2018-06-13T05:30:11.619Z,4.80
2018-06-13T05:32:39.353Z,4.27
2018-06-13T05:35:07.104Z,4.90
2018-06-13T05:37:34.731Z,4.20
2018-06-13T05:40:02.499Z,4.13
2018-06-13T05:42:30.216Z,4.33
2018-06-13T05:44:57.915Z,3.90
2018-06-13T05:47:25.637Z,4.50
2018-06-13T05:49:53.380Z,6.00
2018-06-13T05:52:21.105Z,5.03
2018-06-13T05:54:48.846Z,5.00
2018-06-13T05:57:16.548Z,4.87
2018-06-13T05:59:44.312Z,4.73
2018-06-13T06:02:12.016Z,3.60
2018-06-13T06:04:39.728Z,4.47
2018-06-13T06:07:07.461Z,4.60
2018-06-13T06:09:35.184Z,4.40
2018-06-13T06:12:02.947Z,4.17
2018-06-13T06:14:30.728Z,4.60
2018-06-13T06:16:58.443Z,5.87
2018-06-13T06:19:26.195Z,5.17
2018-06-13T06:21:53.923Z,5.13
2018-06-13T06:24:21.513Z,5.00
2018-06-13T06:26:49.228Z,4.60
2018-06-13T06:29:16.916Z,4.77
2018-06-13T06:31:44.639Z,5.73
2018-06-13T06:34:12.336Z,4.63
2018-06-13T06:36:40.152Z,5.50
2018-06-13T06:39:08.091Z,4.97
2018-06-13T06:41:35.872Z,5.20
2018-06-13T06:44:03.674Z,4.67
2018-06-13T06:46:31.408Z,6.90
2018-06-13T06:48:59.128Z,5.70
2018-06-13T06:51:26.755Z,6.20
2018-06-13T06:53:54.491Z,5.67
2018-06-13T06:56:22.249Z,5.70
2018-06-13T06:58:49.959Z,5.93
2018-06-13T07:01:17.699Z,6.17
2018-06-13T07:03:45.468Z,7.30
2018-06-13T07:06:13.212Z,6.03
2018-06-13T07:08:40.959Z,7.87
2018-06-13T07:11:08.828Z,6.47
2018-06-13T07:13:36.666Z,6.90
2018-06-13T07:16:04.495Z,6.63
2018-06-13T07:18:32.352Z,7.10
2018-06-13T07:21:00.223Z,5.87
2018-06-13T07:23:28.046Z,6.70
2018-06-13T07:25:55.784Z,6.07
2018-06-13T07:28:23.512Z,5.43
2018-06-13T07:30:51.274Z,7.10
2018-06-13T07:33:19.046Z,7.30
2018-06-13T07:35:46.821Z,8.83
2018-06-13T07:38:14.578Z,8.97
2018-06-13T07:40:42.448Z,9.00
2018-06-13T07:43:10.206Z,8.03
2018-06-13T07:45:37.958Z,7.50
2018-06-13T07:48:05.739Z,7.27
2018-06-13T07:50:33.500Z,8.93
2018-06-13T07:53:01.266Z,8.90
2018-06-13T07:55:29.051Z,10.60
2018-06-13T07:57:56.795Z,9.00
2018-06-13T08:00:24.564Z,8.90
2018-06-13T08:02:52.263Z,10.20
2018-06-13T08:05:19.996Z,8.50
2018-06-13T08:07:47.753Z,10.30
2018-06-13T08:10:15.544Z,9.57
2018-06-13T08:12:43.285Z,9.53
2018-06-13T08:15:11.018Z,9.70
2018-06-13T08:17:38.735Z,7.50
2018-06-13T08:20:06.536Z,8.83
2018-06-13T08:22:34.266Z,8.37
2018-06-13T08:25:01.984Z,8.73
2018-06-13T08:27:29.773Z,8.50
2018-06-13T08:29:57.540Z,7.00
2018-06-13T08:32:25.323Z,8.10
2018-06-13T08:34:53.067Z,7.77
2018-06-13T08:37:20.783Z,6.00
2018-06-13T08:39:48.555Z,7.37
2018-06-13T08:42:16.280Z,6.50
2018-06-13T08:44:44.009Z,6.57
2018-06-13T08:47:11.736Z,6.00
2018-06-13T08:49:39.471Z,6.80
2018-06-13T08:52:07.200Z,9.03
2018-06-13T08:54:34.954Z,7.00
2018-06-13T08:57:02.684Z,7.60
2018-06-13T08:59:30.427Z,7.60
2018-06-13T09:01:58.156Z,6.40
2018-06-13T09:04:25.881Z,7.40
2018-06-13T09:06:53.611Z,6.43
2018-06-13T09:09:21.356Z,6.60
2018-06-13T09:11:49.096Z,6.80
2018-06-13T09:14:16.809Z,6.30
2018-06-13T09:16:44.565Z,5.70
2018-06-13T09:19:12.287Z,4.23
2018-06-13T09:21:40.013Z,5.00
2018-06-13T09:24:07.618Z,4.53
2018-06-13T09:26:35.383Z,4.30
2018-06-13T09:29:03.109Z,4.37
2018-06-13T09:31:30.743Z,4.70
2018-06-13T09:33:58.455Z,4.60
2018-06-13T09:36:26.180Z,5.87
2018-06-13T09:38:53.895Z,4.47
2018-06-13T09:41:21.611Z,5.50
2018-06-13T09:43:49.366Z,5.63
2018-06-13T09:46:17.095Z,4.70
2018-06-13T09:48:44.839Z,4.90
2018-06-13T09:51:12.936Z,5.43
2018-06-13T09:53:40.659Z,5.53
2018-06-13T09:56:08.396Z,4.47
2018-06-13T09:58:41.883Z,5.63
2018-06-13T10:02:13.088Z,5.20
2018-06-13T10:04:40.890Z,4.43
2018-06-13T10:07:08.620Z,4.73
2018-06-13T10:09:36.368Z,3.97
2018-06-13T10:12:04.119Z,4.73
2018-06-13T10:14:31.794Z,3.23
2018-06-13T10:16:59.404Z,3.50
2018-06-13T10:19:27.200Z,3.80
2018-06-13T10:21:55.012Z,3.37
2018-06-13T10:24:22.831Z,3.50
2018-06-13T10:26:50.593Z,2.67
2018-06-13T10:29:18.361Z,3.90
2018-06-13T10:31:46.128Z,3.90
2018-06-13T10:34:13.822Z,3.63
2018-06-13T10:36:41.580Z,4.03
2018-06-13T10:39:09.349Z,3.90
2018-06-13T10:41:37.136Z,4.83
2018-06-13T10:44:09.437Z,4.50
2018-06-13T10:46:37.261Z,4.00
2018-06-13T10:49:05.026Z,3.63
2018-06-13T10:51:33.977Z,3.40
2018-06-13T10:54:01.619Z,2.97
2018-06-13T10:56:30.356Z,2.93
2018-06-13T10:58:58.124Z,2.23
2018-06-13T11:01:27.764Z,2.30
2018-06-13T11:03:55.564Z,2.53
2018-06-13T11:06:23.363Z,2.40
2018-06-13T11:08:51.107Z,2.63
2018-06-13T11:11:18.743Z,2.60
2018-06-13T11:13:46.520Z,2.53
2018-06-13T11:16:14.148Z,2.00
2018-06-13T11:18:41.941Z,2.47
2018-06-13T11:21:09.688Z,2.10
2018-06-13T11:23:37.592Z,2.50
2018-06-13T11:26:05.216Z,2.30
2018-06-13T11:28:32.971Z,1.90
2018-06-13T11:31:01.091Z,2.50
2018-06-13T11:33:28.778Z,2.37
2018-06-13T11:35:56.552Z,1.70
2018-06-13T11:38:24.342Z,2.10
2018-06-13T11:40:52.167Z,1.93
2018-06-13T11:43:26.666Z,2.10
2018-06-13T11:45:56.500Z,1.50
2018-06-13T11:48:24.339Z,1.57
2018-06-13T11:50:52.418Z,1.73
2018-06-13T11:53:20.211Z,1.47
2018-06-13T11:55:47.967Z,1.87
2018-06-13T11:58:15.742Z,1.90
2018-06-13T12:00:45.098Z,1.53
2018-06-13T12:03:13.076Z,1.80
2018-06-13T12:05:42.026Z,2.17
2018-06-13T12:08:09.816Z,1.60
2018-06-13T12:10:37.820Z,2.60
2018-06-13T12:13:05.946Z,1.73
2018-06-13T12:15:33.798Z,1.90
2018-06-13T12:18:01.593Z,1.20
2018-06-13T12:20:29.375Z,1.90
2018-06-13T12:22:57.130Z,1.43
2018-06-13T12:25:25.826Z,2.50
2018-06-13T12:27:53.823Z,1.90
2018-06-13T12:30:21.597Z,2.30
2018-06-13T12:32:49.487Z,1.50
2018-06-13T12:35:17.242Z,1.60
2018-06-13T12:37:45.475Z,1.83
2018-06-13T12:40:13.267Z,1.93
2018-06-13T12:42:40.851Z,2.27
2018-06-13T12:45:08.592Z,1.60
2018-06-13T12:47:36.324Z,2.00
2018-06-13T12:50:04.192Z,2.33
2018-06-13T12:52:31.899Z,1.93
2018-06-13T12:54:59.665Z,2.33
2018-06-13T12:57:27.413Z,1.87
2018-06-13T12:59:55.216Z,1.53
2018-06-13T13:02:23.017Z,1.67
2018-06-13T13:04:50.772Z,1.63
2018-06-13T13:07:18.555Z,1.73
2018-06-13T13:09:46.276Z,2.10
2018-06-13T13:12:14.053Z,1.87
2018-06-13T13:14:41.805Z,1.60
2018-06-13T13:17:09.583Z,1.73
2018-06-13T13:19:37.537Z,2.40
2018-06-13T13:22:05.519Z,1.70
2018-06-13T13:24:33.331Z,1.50
2018-06-13T13:27:01.137Z,2.00
2018-06-13T13:29:28.990Z,1.33
2018-06-13T13:31:56.873Z,1.60
2018-06-13T13:34:24.650Z,1.80
2018-06-13T13:36:52.412Z,1.70
2018-06-13T13:39:20.228Z,1.60
2018-06-13T13:41:47.861Z,2.10
2018-06-13T13:44:15.620Z,1.50
2018-06-13T13:46:43.357Z,2.07
2018-06-13T13:49:11.154Z,1.93
2018-06-13T13:51:39.022Z,1.97
2018-06-13T13:54:06.695Z,2.57
2018-06-13T13:56:34.452Z,1.80
2018-06-13T13:59:02.105Z,2.30
2018-06-13T14:01:29.927Z,2.10
2018-06-13T14:03:57.709Z,2.10
2018-06-13T14:06:25.475Z,1.57
2018-06-13T14:08:53.271Z,2.80
2018-06-13T14:11:21.205Z,2.20
2018-06-13T14:13:48.943Z,2.20
2018-06-13T14:16:17.653Z,2.27
2018-06-13T14:18:45.417Z,2.17
2018-06-13T14:21:13.183Z,1.93
2018-06-13T14:23:40.936Z,2.00
2018-06-13T14:26:08.715Z,1.90
2018-06-13T14:28:36.523Z,2.23
2018-06-13T14:31:04.176Z,1.80
2018-06-13T14:33:32.013Z,1.97
2018-06-13T14:35:59.768Z,2.13
2018-06-13T14:38:27.363Z,2.10
2018-06-13T14:40:55.144Z,1.80
2018-06-13T14:43:22.990Z,1.90
2018-06-13T14:45:50.756Z,2.00
2018-06-13T14:48:18.540Z,1.70
2018-06-13T14:50:46.238Z,1.57
2018-06-13T14:53:13.991Z,2.07
2018-06-13T14:55:50.270Z,1.10
2018-06-13T14:58:18.023Z,1.53
2018-06-13T15:00:45.813Z,1.67
2018-06-13T15:03:13.551Z,1.60
2018-06-13T15:05:41.274Z,1.43
2018-06-13T15:08:09.109Z,1.83
2018-06-13T15:10:36.719Z,1.73
2018-06-13T15:13:04.603Z,1.90
2018-06-13T15:15:32.233Z,1.63
2018-06-13T15:18:00.018Z,2.50
2018-06-13T15:20:27.803Z,2.83
2018-06-13T15:22:55.545Z,2.20
2018-06-13T15:25:23.186Z,1.57
2018-06-13T15:27:50.955Z,2.10
2018-06-13T15:30:18.743Z,1.87
2018-06-13T15:32:46.344Z,1.97
2018-06-13T15:35:14.292Z,2.20
2018-06-13T15:37:42.049Z,2.13
2018-06-13T15:40:09.804Z,2.17
2018-06-13T15:42:37.575Z,1.87
2018-06-13T15:45:05.516Z,2.30
2018-06-13T15:47:33.179Z,3.00
2018-06-13T15:50:00.912Z,1.83
2018-06-13T15:52:28.692Z,2.23
2018-06-13T15:54:56.435Z,1.40
2018-06-13T15:57:24.184Z,1.90
2018-06-13T15:59:52.119Z,2.50
2018-06-13T16:02:19.855Z,1.70
2018-06-13T16:04:47.619Z,2.07
2018-06-13T16:07:15.372Z,1.80
2018-06-13T16:09:43.158Z,2.17
2018-06-13T16:12:10.899Z,1.77
2018-06-13T16:14:38.573Z,2.40
2018-06-13T16:17:06.310Z,1.80
2018-06-13T16:19:34.080Z,1.73
2018-06-13T16:22:01.912Z,2.23
2018-06-13T16:24:29.647Z,2.23
2018-06-13T16:26:57.409Z,4.33
2018-06-13T16:29:25.140Z,2.90
2018-06-13T16:31:52.898Z,2.40
2018-06-13T16:34:20.632Z,2.20
2018-06-13T16:36:48.476Z,2.10
2018-06-13T16:39:16.095Z,2.20
2018-06-13T16:41:44.180Z,3.17
2018-06-13T16:44:11.924Z,2.50
2018-06-13T16:46:39.708Z,2.50
2018-06-13T16:49:07.435Z,2.50
2018-06-13T16:51:53.776Z,1.97
2018-06-13T16:54:32.764Z,1.97
2018-06-13T16:57:00.511Z,2.40
2018-06-13T16:59:28.255Z,2.07
2018-06-13T17:01:55.878Z,2.30
2018-06-13T17:04:23.851Z,1.90
2018-06-13T17:06:52.088Z,2.30
2018-06-13T17:09:19.830Z,2.30
2018-06-13T17:11:47.755Z,7.83
2018-06-13T17:14:15.586Z,2.70
2018-06-13T17:16:43.209Z,2.63
2018-06-13T17:19:10.952Z,2.00
2018-06-13T17:21:38.721Z,1.60
2018-06-13T17:24:06.515Z,2.10
2018-06-13T17:26:34.175Z,2.03
2018-06-13T17:29:01.925Z,2.13
2018-06-13T17:31:29.719Z,2.70
2018-06-13T17:33:57.464Z,2.10
2018-06-13T17:36:25.267Z,2.00
2018-06-13T17:38:52.964Z,2.40
2018-06-13T17:41:20.695Z,5.00
2018-06-13T17:43:48.427Z,2.70
2018-06-13T17:46:16.383Z,2.50
2018-06-13T17:48:44.167Z,2.50
2018-06-13T17:51:11.918Z,2.33
2018-06-13T17:53:39.688Z,2.40
2018-06-13T17:56:07.461Z,2.63
2018-06-13T17:58:35.188Z,2.97
2018-06-13T18:01:02.948Z,2.43
2018-06-13T18:03:30.712Z,2.40
2018-06-13T18:05:58.497Z,2.60
2018-06-13T18:08:26.356Z,2.50
2018-06-13T18:10:54.175Z,2.00
2018-06-13T18:13:22.748Z,2.70
2018-06-13T18:15:50.486Z,2.83
2018-06-13T18:18:18.256Z,2.13
2018-06-13T18:20:46.008Z,2.80
2018-06-13T18:23:13.801Z,2.07
2018-06-13T18:25:41.394Z,2.50
2018-06-13T18:28:09.157Z,2.20
2018-06-13T18:30:36.902Z,3.00
2018-06-13T18:33:04.828Z,5.00
2018-06-13T18:35:32.576Z,4.93
2018-06-13T18:38:00.376Z,4.70
2018-06-13T18:40:28.100Z,3.60
2018-06-13T18:42:55.867Z,3.23
2018-06-13T18:45:23.653Z,3.23
2018-06-13T18:47:51.464Z,2.07
2018-06-13T18:50:19.266Z,2.40
2018-06-13T18:52:46.971Z,2.63
2018-06-13T18:55:14.613Z,2.47
2018-06-13T18:57:42.405Z,2.30
2018-06-13T19:00:10.184Z,2.93
2018-06-13T19:02:37.955Z,2.13
2018-06-13T19:05:05.836Z,2.37
2018-06-13T19:07:33.564Z,2.43
2018-06-13T19:10:01.275Z,2.10
2018-06-13T19:12:29.505Z,2.60
2018-06-13T19:14:59.457Z,2.43
2018-06-13T19:17:27.231Z,2.17
2018-06-13T19:19:54.931Z,2.10
2018-06-13T19:22:22.665Z,3.20
2018-06-13T19:24:51.075Z,2.70
2018-06-13T19:27:18.777Z,2.53
2018-06-13T19:29:46.548Z,2.70
2018-06-13T19:32:14.336Z,2.43
2018-06-13T19:34:42.084Z,3.07
2018-06-13T19:37:09.825Z,2.70
2018-06-13T19:39:37.549Z,3.50
2018-06-13T19:42:05.472Z,4.80
2018-06-13T19:44:33.240Z,2.53
2018-06-13T19:47:06.962Z,3.53
2018-06-13T19:49:34.737Z,2.47
2018-06-13T19:52:02.460Z,2.70
2018-06-13T19:54:35.823Z,3.27
2018-06-13T19:57:03.672Z,2.67
2018-06-13T19:59:31.419Z,2.90
2018-06-13T20:01:59.175Z,2.70
2018-06-13T20:04:32.756Z,3.23
2018-06-13T20:07:00.485Z,3.13
2018-06-13T20:09:28.337Z,3.10
2018-06-13T20:12:00.583Z,2.67
2018-06-13T20:14:33.940Z,3.47
2018-06-13T20:17:07.154Z,3.33
2018-06-13T20:19:36.795Z,3.20
2018-06-13T20:22:04.600Z,3.03
2018-06-13T20:24:32.310Z,2.70
2018-06-13T20:27:05.548Z,3.20
2018-06-13T20:29:38.879Z,3.83
2018-06-13T20:32:06.627Z,3.37
2018-06-13T20:34:34.432Z,3.83
2018-06-13T20:37:02.251Z,4.90
2018-06-13T20:39:29.999Z,5.90
2018-06-13T20:41:57.847Z,5.60
2018-06-13T20:44:25.619Z,4.77
2018-06-13T20:46:53.380Z,5.40
2018-06-13T20:49:21.208Z,4.60
2018-06-13T20:51:48.991Z,4.70
2018-06-13T20:54:16.713Z,4.70
2018-06-13T20:56:44.502Z,4.43
2018-06-13T20:59:12.340Z,5.20
2018-06-13T21:01:41.152Z,3.70
2018-06-13T21:04:09.467Z,5.40
2018-06-13T21:06:37.319Z,4.73
2018-06-13T21:09:07.574Z,5.03
2018-06-13T21:11:35.223Z,4.73
2018-06-13T21:14:03.073Z,5.07
2018-06-13T21:16:30.938Z,4.07
2018-06-13T21:18:58.660Z,4.20
2018-06-13T21:21:26.420Z,5.10
2018-06-13T21:23:54.180Z,4.27
2018-06-13T21:26:21.789Z,5.20
2018-06-13T21:28:49.474Z,4.93
2018-06-13T21:31:17.536Z,4.07
2018-06-13T21:33:45.288Z,4.23
2018-06-13T21:36:13.158Z,4.13
2018-06-13T21:38:40.940Z,4.43
2018-06-13T21:41:08.692Z,4.53
2018-06-13T21:43:37.061Z,4.17
2018-06-13T21:46:05.020Z,4.00
2018-06-13T21:48:32.783Z,4.63
2018-06-13T21:51:00.508Z,4.07
2018-06-13T21:53:28.179Z,4.30
2018-06-13T21:55:55.918Z,4.60
2018-06-13T21:58:23.632Z,3.93
2018-06-13T22:00:51.455Z,4.93
2018-06-13T22:03:19.060Z,4.80
2018-06-13T22:05:46.768Z,4.03
2018-06-13T22:08:14.532Z,5.00
2018-06-13T22:10:42.266Z,5.17
2018-06-13T22:13:10.055Z,4.40
2018-06-13T22:15:37.905Z,4.00
2018-06-13T22:18:05.698Z,3.93
2018-06-13T22:20:33.439Z,5.00
2018-06-13T22:23:01.158Z,4.40
2018-06-13T22:25:28.923Z,4.50
2018-06-13T22:27:56.632Z,5.40
2018-06-13T22:30:24.384Z,5.43
2018-06-13T22:32:52.093Z,4.70
2018-06-13T22:35:19.723Z,5.20
2018-06-13T22:37:47.444Z,4.80
2018-06-13T22:40:15.147Z,5.03
2018-06-13T22:42:42.905Z,4.80
2018-06-13T22:45:10.632Z,5.40
2018-06-13T22:47:38.357Z,5.30
2018-06-13T22:50:06.137Z,5.50
2018-06-13T22:52:33.864Z,4.73
2018-06-13T22:55:01.576Z,4.80
2018-06-13T22:57:29.185Z,5.40
2018-06-13T22:59:57.911Z,6.20
2018-06-13T23:02:25.514Z,7.00
2018-06-13T23:04:53.207Z,5.77
2018-06-13T23:07:20.945Z,5.50
2018-06-13T23:09:48.682Z,5.50
2018-06-13T23:12:16.440Z,5.93
2018-06-13T23:14:44.016Z,5.43
2018-06-13T23:17:11.841Z,5.57
2018-06-13T23:19:39.610Z,4.70
2018-06-13T23:22:07.278Z,5.00
2018-06-13T23:24:35.018Z,6.37
2018-06-13T23:27:02.740Z,6.20
2018-06-13T23:29:30.536Z,5.50
2018-06-13T23:31:58.319Z,6.65
2018-06-13T23:34:26.061Z,5.42
2018-06-13T23:36:53.874Z,6.15
2018-06-13T23:39:21.609Z,6.10
2018-06-13T23:41:49.391Z,6.90
2018-06-13T23:44:17.130Z,5.30
2018-06-13T23:46:44.869Z,5.90
2018-06-13T23:49:12.580Z,6.28
2018-06-13T23:51:40.292Z,5.33
2018-06-13T23:54:07.981Z,5.10
2018-06-13T23:56:35.733Z,5.70
2018-06-13T23:59:04.167Z,6.42
